sensor_id;sensor_type;location;lat;lon;timestamp;pressure;altitude;pressure_sealevel;temperature;humidity
45071;BME280;30836;48.906;9.140;2022-10-31T00:00:53;990.75;;;22.33;45.28
45071;BME280;30836;48.906;9.140;2022-10-31T00:01:53;990.75;;;22.32;45.17
45071;BME280;30836;48.906;9.140;2022-10-31T00:02:53;990.77;;;22.32;45.00
45071;BME280;30836;48.906;9.140;2022-10-31T00:03:54;990.75;;;22.31;44.97
45071;BME280;30836;48.906;9.140;2022-10-31T00:04:55;990.77;;;22.30;44.84
45071;BME280;30836;48.906;9.140;2022-10-31T00:05:55;990.77;;;22.29;44.79
45071;BME280;30836;48.906;9.140;2022-10-31T00:06:56;990.75;;;22.27;44.69
45071;BME280;30836;48.906;9.140;2022-10-31T00:07:57;990.79;;;22.26;44.58
45071;BME280;30836;48.906;9.140;2022-10-31T00:08:58;990.77;;;22.25;44.58
45071;BME280;30836;48.906;9.140;2022-10-31T00:10:00;990.73;;;22.24;44.86
45071;BME280;30836;48.906;9.140;2022-10-31T00:11:01;990.75;;;22.22;45.00
45071;BME280;30836;48.906;9.140;2022-10-31T00:12:01;990.79;;;22.20;45.18
45071;BME280;30836;48.906;9.140;2022-10-31T00:13:01;990.79;;;22.18;45.33
45071;BME280;30836;48.906;9.140;2022-10-31T00:14:02;990.79;;;22.16;45.40
45071;BME280;30836;48.906;9.140;2022-10-31T00:15:03;990.79;;;22.15;45.66
45071;BME280;30836;48.906;9.140;2022-10-31T00:16:04;990.79;;;22.12;45.76
45071;BME280;30836;48.906;9.140;2022-10-31T00:17:05;990.77;;;22.10;45.81
45071;BME280;30836;48.906;9.140;2022-10-31T00:18:06;990.77;;;22.08;45.92
45071;BME280;30836;48.906;9.140;2022-10-31T00:19:07;990.79;;;22.05;45.94
45071;BME280;30836;48.906;9.140;2022-10-31T00:20:09;990.77;;;22.04;45.84
45071;BME280;30836;48.906;9.140;2022-10-31T00:21:09;990.79;;;22.02;45.92
45071;BME280;30836;48.906;9.140;2022-10-31T00:22:10;990.79;;;22.00;45.99
45071;BME280;30836;48.906;9.140;2022-10-31T00:23:11;990.77;;;21.97;46.19
45071;BME280;30836;48.906;9.140;2022-10-31T00:24:11;990.77;;;21.94;46.30
45071;BME280;30836;48.906;9.140;2022-10-31T00:25:12;990.79;;;21.92;46.32
45071;BME280;30836;48.906;9.140;2022-10-31T00:26:12;990.77;;;21.90;46.26
45071;BME280;30836;48.906;9.140;2022-10-31T00:26:22;990.81;;;21.86;46.26
45071;BME280;30836;48.906;9.140;2022-10-31T00:27:23;990.79;;;21.86;46.33
45071;BME280;30836;48.906;9.140;2022-10-31T00:28:23;990.79;;;21.78;46.67
45071;BME280;30836;48.906;9.140;2022-10-31T00:29:24;990.77;;;21.66;46.92
45071;BME280;30836;48.906;9.140;2022-10-31T00:30:24;990.77;;;21.52;47.29
45071;BME280;30836;48.906;9.140;2022-10-31T00:31:24;990.77;;;21.39;47.64
45071;BME280;30836;48.906;9.140;2022-10-31T00:32:25;990.73;;;21.28;47.89
45071;BME280;30836;48.906;9.140;2022-10-31T00:33:29;990.75;;;21.21;47.91
45071;BME280;30836;48.906;9.140;2022-10-31T00:34:30;990.75;;;21.15;47.95
45071;BME280;30836;48.906;9.140;2022-10-31T00:35:30;990.75;;;21.10;48.05
45071;BME280;30836;48.906;9.140;2022-10-31T00:36:31;990.75;;;21.06;48.13
45071;BME280;30836;48.906;9.140;2022-10-31T00:37:32;990.75;;;21.02;48.30
45071;BME280;30836;48.906;9.140;2022-10-31T00:38:32;990.75;;;20.98;48.48
45071;BME280;30836;48.906;9.140;2022-10-31T00:39:33;990.77;;;20.93;48.58
45071;BME280;30836;48.906;9.140;2022-10-31T00:40:34;990.77;;;20.89;48.51
45071;BME280;30836;48.906;9.140;2022-10-31T00:41:34;990.73;;;20.85;48.50
45071;BME280;30836;48.906;9.140;2022-10-31T00:42:34;990.77;;;20.82;48.48
45071;BME280;30836;48.906;9.140;2022-10-31T00:43:35;990.79;;;20.80;48.46
45071;BME280;30836;48.906;9.140;2022-10-31T00:44:35;990.79;;;20.78;48.59
45071;BME280;30836;48.906;9.140;2022-10-31T00:45:36;990.79;;;20.76;48.44
45071;BME280;30836;48.906;9.140;2022-10-31T00:46:36;990.81;;;20.74;48.39
45071;BME280;30836;48.906;9.140;2022-10-31T00:47:37;990.79;;;20.72;48.58
45071;BME280;30836;48.906;9.140;2022-10-31T00:48:37;990.79;;;20.71;48.49
45071;BME280;30836;48.906;9.140;2022-10-31T00:49:38;990.79;;;20.69;48.41
45071;BME280;30836;48.906;9.140;2022-10-31T00:50:39;990.77;;;20.66;48.49
45071;BME280;30836;48.906;9.140;2022-10-31T00:51:39;990.75;;;20.64;48.67
45071;BME280;30836;48.906;9.140;2022-10-31T00:52:40;990.71;;;20.61;48.74
45071;BME280;30836;48.906;9.140;2022-10-31T00:53:40;990.73;;;20.57;48.80
45071;BME280;30836;48.906;9.140;2022-10-31T00:54:41;990.75;;;20.53;48.79
45071;BME280;30836;48.906;9.140;2022-10-31T00:55:41;990.75;;;20.50;48.79
45071;BME280;30836;48.906;9.140;2022-10-31T00:56:42;990.75;;;20.48;48.74
45071;BME280;30836;48.906;9.140;2022-10-31T00:57:42;990.71;;;20.46;48.67
45071;BME280;30836;48.906;9.140;2022-10-31T00:58:45;990.71;;;20.44;48.57
45071;BME280;30836;48.906;9.140;2022-10-31T00:59:46;990.71;;;20.44;48.44
45071;BME280;30836;48.906;9.140;2022-10-31T01:00:47;990.71;;;20.44;48.49
45071;BME280;30836;48.906;9.140;2022-10-31T01:01:48;990.71;;;20.43;48.46
45071;BME280;30836;48.906;9.140;2022-10-31T01:02:49;990.71;;;20.43;48.31
45071;BME280;30836;48.906;9.140;2022-10-31T01:03:49;990.71;;;20.44;48.20
45071;BME280;30836;48.906;9.140;2022-10-31T01:04:50;990.69;;;20.44;48.07
45071;BME280;30836;48.906;9.140;2022-10-31T01:06:56;990.71;;;20.44;48.15
45071;BME280;30836;48.906;9.140;2022-10-31T01:07:57;990.71;;;20.43;48.17
45071;BME280;30836;48.906;9.140;2022-10-31T01:08:58;990.69;;;20.42;48.13
45071;BME280;30836;48.906;9.140;2022-10-31T01:09:59;990.71;;;20.41;48.11
45071;BME280;30836;48.906;9.140;2022-10-31T01:11:00;990.71;;;20.40;47.99
45071;BME280;30836;48.906;9.140;2022-10-31T01:12:06;990.71;;;20.40;48.05
45071;BME280;30836;48.906;9.140;2022-10-31T01:13:07;990.71;;;20.41;48.15
45071;BME280;30836;48.906;9.140;2022-10-31T01:14:08;990.73;;;20.41;48.25
45071;BME280;30836;48.906;9.140;2022-10-31T01:15:09;990.73;;;20.41;48.27
45071;BME280;30836;48.906;9.140;2022-10-31T01:16:12;990.73;;;20.41;48.29
45071;BME280;30836;48.906;9.140;2022-10-31T01:17:14;990.73;;;20.42;48.53
45071;BME280;30836;48.906;9.140;2022-10-31T01:18:14;990.71;;;20.42;49.16
45071;BME280;30836;48.906;9.140;2022-10-31T01:19:15;990.73;;;20.40;49.37
45071;BME280;30836;48.906;9.140;2022-10-31T01:20:16;990.73;;;20.36;49.90
45071;BME280;30836;48.906;9.140;2022-10-31T01:21:21;990.75;;;20.33;49.93
45071;BME280;30836;48.906;9.140;2022-10-31T01:22:23;990.73;;;20.31;49.90
45071;BME280;30836;48.906;9.140;2022-10-31T01:23:24;990.75;;;20.29;50.09
45071;BME280;30836;48.906;9.140;2022-10-31T01:24:25;990.73;;;20.27;50.27
45071;BME280;30836;48.906;9.140;2022-10-31T01:25:25;990.77;;;20.25;50.42
45071;BME280;30836;48.906;9.140;2022-10-31T01:26:26;990.77;;;20.23;50.64
45071;BME280;30836;48.906;9.140;2022-10-31T01:27:28;990.75;;;20.23;50.62
45071;BME280;30836;48.906;9.140;2022-10-31T01:28:29;990.77;;;20.23;51.19
45071;BME280;30836;48.906;9.140;2022-10-31T01:29:29;990.77;;;20.22;51.23
45071;BME280;30836;48.906;9.140;2022-10-31T01:30:30;990.77;;;20.21;51.40
45071;BME280;30836;48.906;9.140;2022-10-31T01:31:31;990.75;;;20.21;51.42
45071;BME280;30836;48.906;9.140;2022-10-31T01:32:33;990.75;;;20.24;51.04
45071;BME280;30836;48.906;9.140;2022-10-31T01:33:34;990.73;;;20.35;50.59
45071;BME280;30836;48.906;9.140;2022-10-31T01:34:36;990.77;;;20.51;50.12
45071;BME280;30836;48.906;9.140;2022-10-31T01:35:36;990.75;;;20.67;49.76
45071;BME280;30836;48.906;9.140;2022-10-31T01:36:37;990.77;;;20.81;49.50
45071;BME280;30836;48.906;9.140;2022-10-31T01:37:38;990.73;;;20.92;49.16
45071;BME280;30836;48.906;9.140;2022-10-31T01:38:38;990.71;;;21.01;49.00
45071;BME280;30836;48.906;9.140;2022-10-31T01:39:38;990.71;;;21.09;48.85
45071;BME280;30836;48.906;9.140;2022-10-31T01:40:39;990.71;;;21.17;48.70
45071;BME280;30836;48.906;9.140;2022-10-31T01:41:41;990.69;;;21.22;48.64
45071;BME280;30836;48.906;9.140;2022-10-31T01:42:43;990.71;;;21.20;48.93
45071;BME280;30836;48.906;9.140;2022-10-31T01:44:48;990.71;;;21.03;49.37
45071;BME280;30836;48.906;9.140;2022-10-31T01:45:54;990.73;;;20.94;49.53
45071;BME280;30836;48.906;9.140;2022-10-31T01:48:06;990.73;;;20.78;49.75
45071;BME280;30836;48.906;9.140;2022-10-31T01:49:35;990.73;;;20.70;50.04
45071;BME280;30836;48.906;9.140;2022-10-31T01:50:28;990.71;;;20.62;50.26
45071;BME280;30836;48.906;9.140;2022-10-31T01:51:36;990.69;;;20.55;50.46
45071;BME280;30836;48.906;9.140;2022-10-31T01:52:42;990.71;;;20.51;50.73
45071;BME280;30836;48.906;9.140;2022-10-31T01:53:45;990.67;;;20.47;50.80
45071;BME280;30836;48.906;9.140;2022-10-31T01:53:58;990.69;;;20.42;50.79
45071;BME280;30836;48.906;9.140;2022-10-31T01:55:08;990.69;;;20.43;50.81
45071;BME280;30836;48.906;9.140;2022-10-31T01:56:12;990.71;;;20.44;50.92
45071;BME280;30836;48.906;9.140;2022-10-31T01:57:14;990.67;;;20.43;50.97
45071;BME280;30836;48.906;9.140;2022-10-31T01:58:19;990.69;;;20.43;50.98
45071;BME280;30836;48.906;9.140;2022-10-31T01:59:24;990.67;;;20.42;50.91
45071;BME280;30836;48.906;9.140;2022-10-31T02:00:29;990.67;;;20.43;50.89
45071;BME280;30836;48.906;9.140;2022-10-31T02:01:30;990.65;;;20.44;50.86
45071;BME280;30836;48.906;9.140;2022-10-31T02:02:30;990.67;;;20.43;51.08
45071;BME280;30836;48.906;9.140;2022-10-31T02:03:31;990.67;;;20.40;51.01
45071;BME280;30836;48.906;9.140;2022-10-31T02:04:33;990.69;;;20.38;51.01
45071;BME280;30836;48.906;9.140;2022-10-31T02:05:34;990.71;;;20.37;51.02
45071;BME280;30836;48.906;9.140;2022-10-31T02:06:37;990.69;;;20.36;51.14
45071;BME280;30836;48.906;9.140;2022-10-31T02:08:52;990.71;;;20.33;51.41
45071;BME280;30836;48.906;9.140;2022-10-31T02:09:53;990.69;;;20.28;51.52
45071;BME280;30836;48.906;9.140;2022-10-31T02:10:57;990.69;;;20.27;51.47
45071;BME280;30836;48.906;9.140;2022-10-31T02:11:58;990.65;;;20.36;50.97
45071;BME280;30836;48.906;9.140;2022-10-31T02:13:00;990.69;;;20.53;50.50
45071;BME280;30836;48.906;9.140;2022-10-31T02:14:03;990.67;;;20.69;50.11
45071;BME280;30836;48.906;9.140;2022-10-31T02:15:04;990.69;;;20.82;49.83
45071;BME280;30836;48.906;9.140;2022-10-31T02:16:05;990.67;;;20.92;49.63
45071;BME280;30836;48.906;9.140;2022-10-31T02:17:06;990.69;;;20.99;49.68
45071;BME280;30836;48.906;9.140;2022-10-31T02:18:06;990.67;;;21.03;49.59
45071;BME280;30836;48.906;9.140;2022-10-31T02:19:08;990.67;;;21.07;49.42
45071;BME280;30836;48.906;9.140;2022-10-31T02:20:20;990.67;;;21.13;49.14
45071;BME280;30836;48.906;9.140;2022-10-31T02:22:33;990.65;;;21.22;48.96
45071;BME280;30836;48.906;9.140;2022-10-31T02:27:07;990.63;;;21.37;48.58
45071;BME280;30836;48.906;9.140;2022-10-31T02:39:45;990.69;;;21.59;47.71
45071;BME280;30836;48.906;9.140;2022-10-31T02:40:59;990.67;;;21.59;47.63
45071;BME280;30836;48.906;9.140;2022-10-31T02:43:20;990.63;;;21.57;48.02
45071;BME280;30836;48.906;9.140;2022-10-31T02:46:48;990.65;;;21.54;47.81
45071;BME280;30836;48.906;9.140;2022-10-31T02:47:53;990.65;;;21.56;47.61
45071;BME280;30836;48.906;9.140;2022-10-31T02:48:57;990.65;;;21.57;47.59
45071;BME280;30836;48.906;9.140;2022-10-31T02:50:07;990.65;;;21.58;47.55
45071;BME280;30836;48.906;9.140;2022-10-31T02:51:12;990.65;;;21.59;47.53
45071;BME280;30836;48.906;9.140;2022-10-31T02:52:17;990.63;;;21.60;47.49
45071;BME280;30836;48.906;9.140;2022-10-31T02:53:19;990.65;;;21.59;47.50
45071;BME280;30836;48.906;9.140;2022-10-31T02:54:21;990.65;;;21.58;47.51
45071;BME280;30836;48.906;9.140;2022-10-31T02:56:24;990.63;;;21.56;47.32
45071;BME280;30836;48.906;9.140;2022-10-31T02:57:25;990.61;;;21.56;47.28
45071;BME280;30836;48.906;9.140;2022-10-31T02:58:31;990.63;;;21.57;47.11
45071;BME280;30836;48.906;9.140;2022-10-31T02:59:41;990.63;;;21.58;47.03
45071;BME280;30836;48.906;9.140;2022-10-31T03:03:08;990.61;;;21.61;47.00
45071;BME280;30836;48.906;9.140;2022-10-31T03:10:12;990.57;;;21.49;47.20
45071;BME280;30836;48.906;9.140;2022-10-31T03:11:18;990.57;;;21.45;47.46
45071;BME280;30836;48.906;9.140;2022-10-31T03:12:26;990.55;;;21.40;47.57
45071;BME280;30836;48.906;9.140;2022-10-31T03:14:41;990.55;;;21.31;47.60
45071;BME280;30836;48.906;9.140;2022-10-31T03:15:51;990.57;;;21.28;47.67
45071;BME280;30836;48.906;9.140;2022-10-31T03:16:55;990.53;;;21.27;47.65
45071;BME280;30836;48.906;9.140;2022-10-31T03:17:09;990.53;;;21.25;47.61
45071;BME280;30836;48.906;9.140;2022-10-31T03:19:26;990.55;;;21.15;48.17
45071;BME280;30836;48.906;9.140;2022-10-31T03:20:33;990.57;;;21.00;48.47
45071;BME280;30836;48.906;9.140;2022-10-31T03:22:50;990.57;;;20.74;49.05
45071;BME280;30836;48.906;9.140;2022-10-31T03:23:02;990.55;;;20.55;49.06
45071;BME280;30836;48.906;9.140;2022-10-31T03:24:04;990.57;;;20.54;49.10
45071;BME280;30836;48.906;9.140;2022-10-31T03:25:08;990.57;;;20.50;49.44
45071;BME280;30836;48.906;9.140;2022-10-31T03:26:10;990.59;;;20.41;49.59
45071;BME280;30836;48.906;9.140;2022-10-31T03:27:14;990.61;;;20.30;49.93
45071;BME280;30836;48.906;9.140;2022-10-31T03:28:18;990.63;;;20.22;49.98
45071;BME280;30836;48.906;9.140;2022-10-31T03:29:26;990.61;;;20.16;50.09
45071;BME280;30836;48.906;9.140;2022-10-31T03:30:30;990.63;;;20.11;50.12
45071;BME280;30836;48.906;9.140;2022-10-31T03:31:36;990.63;;;20.05;50.29
45071;BME280;30836;48.906;9.140;2022-10-31T03:32:49;990.65;;;19.99;50.48
45071;BME280;30836;48.906;9.140;2022-10-31T03:33:53;990.65;;;19.97;50.52
45071;BME280;30836;48.906;9.140;2022-10-31T03:34:59;990.65;;;19.98;50.44
45071;BME280;30836;48.906;9.140;2022-10-31T03:36:02;990.69;;;20.00;50.25
45071;BME280;30836;48.906;9.140;2022-10-31T03:37:06;990.69;;;20.00;50.26
45071;BME280;30836;48.906;9.140;2022-10-31T03:38:10;990.71;;;20.00;50.30
45071;BME280;30836;48.906;9.140;2022-10-31T03:39:13;990.69;;;20.01;50.29
45071;BME280;30836;48.906;9.140;2022-10-31T03:40:16;990.67;;;20.01;50.40
45071;BME280;30836;48.906;9.140;2022-10-31T03:41:21;990.69;;;20.02;50.37
45071;BME280;30836;48.906;9.140;2022-10-31T03:42:27;990.67;;;20.01;50.42
45071;BME280;30836;48.906;9.140;2022-10-31T03:43:32;990.67;;;20.01;50.37
45071;BME280;30836;48.906;9.140;2022-10-31T03:44:58;990.71;;;20.02;50.09
45071;BME280;30836;48.906;9.140;2022-10-31T03:46:04;990.71;;;20.06;50.10
45071;BME280;30836;48.906;9.140;2022-10-31T03:47:06;990.71;;;20.09;50.15
45071;BME280;30836;48.906;9.140;2022-10-31T03:48:07;990.73;;;20.08;50.19
45071;BME280;30836;48.906;9.140;2022-10-31T03:49:08;990.73;;;20.05;50.29
45071;BME280;30836;48.906;9.140;2022-10-31T03:50:09;990.71;;;20.03;50.21
45071;BME280;30836;48.906;9.140;2022-10-31T03:56:41;990.71;;;19.99;50.15
45071;BME280;30836;48.906;9.140;2022-10-31T03:59:04;990.67;;;20.09;49.63
45071;BME280;30836;48.906;9.140;2022-10-31T04:00:09;990.69;;;20.23;49.19
45071;BME280;30836;48.906;9.140;2022-10-31T04:01:13;990.65;;;20.38;48.80
45071;BME280;30836;48.906;9.140;2022-10-31T04:02:18;990.63;;;20.51;48.55
45071;BME280;30836;48.906;9.140;2022-10-31T04:03:24;990.65;;;20.61;48.25
45071;BME280;30836;48.906;9.140;2022-10-31T04:04:26;990.67;;;20.70;48.11
45071;BME280;30836;48.906;9.140;2022-10-31T04:05:29;990.63;;;20.78;47.94
45071;BME280;30836;48.906;9.140;2022-10-31T04:06:31;990.65;;;20.84;47.72
45071;BME280;30836;48.906;9.140;2022-10-31T04:07:36;990.65;;;20.90;47.50
45071;BME280;30836;48.906;9.140;2022-10-31T04:08:43;990.63;;;20.94;47.36
45071;BME280;30836;48.906;9.140;2022-10-31T04:09:50;990.59;;;20.98;47.36
45071;BME280;30836;48.906;9.140;2022-10-31T04:10:02;990.65;;;21.02;47.34
45071;BME280;30836;48.906;9.140;2022-10-31T04:11:06;990.63;;;21.01;47.41
45071;BME280;30836;48.906;9.140;2022-10-31T04:12:09;990.61;;;20.95;47.65
45071;BME280;30836;48.906;9.140;2022-10-31T04:13:12;990.61;;;20.92;47.70
45071;BME280;30836;48.906;9.140;2022-10-31T04:14:17;990.61;;;20.93;47.52
45071;BME280;30836;48.906;9.140;2022-10-31T04:15:18;990.61;;;20.96;47.41
45071;BME280;30836;48.906;9.140;2022-10-31T04:16:20;990.57;;;20.99;47.35
45071;BME280;30836;48.906;9.140;2022-10-31T04:17:22;990.59;;;21.01;47.48
45071;BME280;30836;48.906;9.140;2022-10-31T04:18:25;990.59;;;21.02;47.49
45071;BME280;30836;48.906;9.140;2022-10-31T04:19:26;990.59;;;21.03;47.38
45071;BME280;30836;48.906;9.140;2022-10-31T04:21:36;990.53;;;21.06;47.14
45071;BME280;30836;48.906;9.140;2022-10-31T04:22:37;990.53;;;21.08;47.00
45071;BME280;30836;48.906;9.140;2022-10-31T04:23:37;990.49;;;21.09;46.92
45071;BME280;30836;48.906;9.140;2022-10-31T04:24:38;990.49;;;21.10;46.84
45071;BME280;30836;48.906;9.140;2022-10-31T04:25:40;990.49;;;21.11;46.73
45071;BME280;30836;48.906;9.140;2022-10-31T04:26:40;990.49;;;21.12;46.70
45071;BME280;30836;48.906;9.140;2022-10-31T04:27:40;990.47;;;21.12;46.67
45071;BME280;30836;48.906;9.140;2022-10-31T04:28:41;990.47;;;21.13;46.61
45071;BME280;30836;48.906;9.140;2022-10-31T04:29:41;990.46;;;21.13;46.58
45071;BME280;30836;48.906;9.140;2022-10-31T04:30:42;990.46;;;21.13;46.61
45071;BME280;30836;48.906;9.140;2022-10-31T04:31:42;990.46;;;21.13;46.46
45071;BME280;30836;48.906;9.140;2022-10-31T04:32:43;990.44;;;21.12;46.43
45071;BME280;30836;48.906;9.140;2022-10-31T04:33:43;990.44;;;21.11;46.45
45071;BME280;30836;48.906;9.140;2022-10-31T04:34:44;990.42;;;21.10;46.49
45071;BME280;30836;48.906;9.140;2022-10-31T04:35:44;990.44;;;21.10;46.63
45071;BME280;30836;48.906;9.140;2022-10-31T04:36:45;990.42;;;21.09;46.60
45071;BME280;30836;48.906;9.140;2022-10-31T04:37:46;990.42;;;21.09;46.51
45071;BME280;30836;48.906;9.140;2022-10-31T04:38:46;990.42;;;21.09;46.61
45071;BME280;30836;48.906;9.140;2022-10-31T04:39:46;990.42;;;21.09;46.63
45071;BME280;30836;48.906;9.140;2022-10-31T04:40:47;990.42;;;21.10;46.23
45071;BME280;30836;48.906;9.140;2022-10-31T04:41:47;990.38;;;21.10;46.22
45071;BME280;30836;48.906;9.140;2022-10-31T04:42:48;990.36;;;21.09;46.33
45071;BME280;30836;48.906;9.140;2022-10-31T04:43:48;990.34;;;21.09;46.42
45071;BME280;30836;48.906;9.140;2022-10-31T04:44:48;990.34;;;21.09;46.54
45071;BME280;30836;48.906;9.140;2022-10-31T04:45:49;990.34;;;21.08;46.75
45071;BME280;30836;48.906;9.140;2022-10-31T04:46:49;990.34;;;21.06;46.92
45071;BME280;30836;48.906;9.140;2022-10-31T04:47:50;990.34;;;21.05;46.91
45071;BME280;30836;48.906;9.140;2022-10-31T04:48:50;990.34;;;21.03;46.99
45071;BME280;30836;48.906;9.140;2022-10-31T04:49:51;990.30;;;21.02;47.02
45071;BME280;30836;48.906;9.140;2022-10-31T04:50:51;990.30;;;21.02;47.02
45071;BME280;30836;48.906;9.140;2022-10-31T04:51:51;990.28;;;21.02;47.00
45071;BME280;30836;48.906;9.140;2022-10-31T04:52:52;990.26;;;21.03;46.94
45071;BME280;30836;48.906;9.140;2022-10-31T04:53:52;990.26;;;21.04;46.85
45071;BME280;30836;48.906;9.140;2022-10-31T04:54:53;990.22;;;21.04;46.81
45071;BME280;30836;48.906;9.140;2022-10-31T04:55:53;990.22;;;21.03;46.82
45071;BME280;30836;48.906;9.140;2022-10-31T04:56:53;990.20;;;21.03;46.73
45071;BME280;30836;48.906;9.140;2022-10-31T04:57:54;990.20;;;21.04;46.74
45071;BME280;30836;48.906;9.140;2022-10-31T04:58:54;990.20;;;21.04;46.63
45071;BME280;30836;48.906;9.140;2022-10-31T04:59:55;990.22;;;21.03;46.61
45071;BME280;30836;48.906;9.140;2022-10-31T05:00:55;990.22;;;21.02;46.61
45071;BME280;30836;48.906;9.140;2022-10-31T05:01:57;990.22;;;21.01;46.65
45071;BME280;30836;48.906;9.140;2022-10-31T05:02:57;990.18;;;20.99;46.69
45071;BME280;30836;48.906;9.140;2022-10-31T05:03:58;990.20;;;20.98;46.69
45071;BME280;30836;48.906;9.140;2022-10-31T05:04:58;990.22;;;20.96;46.76
45071;BME280;30836;48.906;9.140;2022-10-31T05:05:59;990.20;;;20.93;46.82
45071;BME280;30836;48.906;9.140;2022-10-31T05:07:00;990.22;;;20.92;46.79
45071;BME280;30836;48.906;9.140;2022-10-31T05:08:00;990.20;;;20.89;46.81
45071;BME280;30836;48.906;9.140;2022-10-31T05:09:01;990.18;;;20.86;46.78
45071;BME280;30836;48.906;9.140;2022-10-31T05:10:01;990.16;;;20.84;46.89
45071;BME280;30836;48.906;9.140;2022-10-31T05:11:02;990.16;;;20.80;47.02
45071;BME280;30836;48.906;9.140;2022-10-31T05:12:03;990.18;;;20.78;47.06
45071;BME280;30836;48.906;9.140;2022-10-31T05:13:04;990.18;;;20.76;47.01
45071;BME280;30836;48.906;9.140;2022-10-31T05:14:05;990.16;;;20.77;46.97
45071;BME280;30836;48.906;9.140;2022-10-31T05:15:05;990.16;;;20.78;46.80
45071;BME280;30836;48.906;9.140;2022-10-31T05:16:06;990.16;;;20.74;47.04
45071;BME280;30836;48.906;9.140;2022-10-31T05:17:07;990.14;;;20.64;47.44
45071;BME280;30836;48.906;9.140;2022-10-31T05:18:07;990.12;;;20.50;47.72
45071;BME280;30836;48.906;9.140;2022-10-31T05:19:08;990.12;;;20.36;48.05
45071;BME280;30836;48.906;9.140;2022-10-31T05:20:09;990.12;;;20.21;48.38
45071;BME280;30836;48.906;9.140;2022-10-31T05:21:10;990.10;;;20.08;48.60
45071;BME280;30836;48.906;9.140;2022-10-31T05:22:10;990.12;;;19.98;48.71
45071;BME280;30836;48.906;9.140;2022-10-31T05:23:11;990.12;;;19.90;48.90
45071;BME280;30836;48.906;9.140;2022-10-31T05:24:12;990.12;;;19.80;49.42
45071;BME280;30836;48.906;9.140;2022-10-31T05:25:12;990.14;;;19.70;49.39
45071;BME280;30836;48.906;9.140;2022-10-31T05:26:13;990.12;;;19.64;49.49
45071;BME280;30836;48.906;9.140;2022-10-31T05:27:13;990.12;;;19.61;49.50
45071;BME280;30836;48.906;9.140;2022-10-31T05:28:14;990.14;;;19.60;49.41
45071;BME280;30836;48.906;9.140;2022-10-31T05:29:14;990.14;;;19.58;49.52
45071;BME280;30836;48.906;9.140;2022-10-31T05:30:16;990.16;;;19.55;49.57
45071;BME280;30836;48.906;9.140;2022-10-31T05:31:19;990.16;;;19.53;49.62
45071;BME280;30836;48.906;9.140;2022-10-31T05:32:19;990.16;;;19.52;49.66
45071;BME280;30836;48.906;9.140;2022-10-31T05:33:20;990.14;;;19.50;49.77
45071;BME280;30836;48.906;9.140;2022-10-31T05:34:20;990.14;;;19.47;49.75
45071;BME280;30836;48.906;9.140;2022-10-31T05:35:22;990.14;;;19.43;49.79
45071;BME280;30836;48.906;9.140;2022-10-31T05:36:23;990.16;;;19.41;49.86
45071;BME280;30836;48.906;9.140;2022-10-31T05:37:24;990.14;;;19.39;49.94
45071;BME280;30836;48.906;9.140;2022-10-31T05:38:24;990.14;;;19.39;49.94
45071;BME280;30836;48.906;9.140;2022-10-31T05:38:34;990.12;;;19.37;49.92
45071;BME280;30836;48.906;9.140;2022-10-31T05:39:35;990.10;;;19.38;49.86
45071;BME280;30836;48.906;9.140;2022-10-31T05:40:35;990.10;;;19.38;49.88
45071;BME280;30836;48.906;9.140;2022-10-31T05:41:36;990.08;;;19.36;49.91
45071;BME280;30836;48.906;9.140;2022-10-31T05:42:37;990.06;;;19.34;49.90
45071;BME280;30836;48.906;9.140;2022-10-31T05:43:39;990.04;;;19.31;50.03
45071;BME280;30836;48.906;9.140;2022-10-31T05:44:39;990.02;;;19.28;50.10
45071;BME280;30836;48.906;9.140;2022-10-31T05:45:40;990.04;;;19.26;50.09
45071;BME280;30836;48.906;9.140;2022-10-31T05:46:40;990.02;;;19.25;50.11
45071;BME280;30836;48.906;9.140;2022-10-31T05:47:41;990.00;;;19.24;50.05
45071;BME280;30836;48.906;9.140;2022-10-31T05:48:41;990.00;;;19.23;50.06
45071;BME280;30836;48.906;9.140;2022-10-31T05:49:42;989.96;;;19.22;49.92
45071;BME280;30836;48.906;9.140;2022-10-31T05:50:42;989.94;;;19.22;49.95
45071;BME280;30836;48.906;9.140;2022-10-31T05:51:42;989.96;;;19.21;50.07
45071;BME280;30836;48.906;9.140;2022-10-31T05:52:43;989.94;;;19.20;50.01
45071;BME280;30836;48.906;9.140;2022-10-31T05:53:43;989.98;;;19.20;50.06
45071;BME280;30836;48.906;9.140;2022-10-31T05:54:46;989.96;;;19.21;50.02
45071;BME280;30836;48.906;9.140;2022-10-31T05:55:46;990.02;;;19.22;49.92
45071;BME280;30836;48.906;9.140;2022-10-31T05:56:47;990.04;;;19.22;49.89
45071;BME280;30836;48.906;9.140;2022-10-31T05:57:47;990.00;;;19.22;49.93
45071;BME280;30836;48.906;9.140;2022-10-31T05:58:48;990.04;;;19.20;50.20
45071;BME280;30836;48.906;9.140;2022-10-31T05:59:48;990.02;;;19.15;50.30
45071;BME280;30836;48.906;9.140;2022-10-31T06:00:49;990.04;;;19.13;50.24
45071;BME280;30836;48.906;9.140;2022-10-31T06:01:49;990.06;;;19.11;50.27
45071;BME280;30836;48.906;9.140;2022-10-31T06:02:53;990.04;;;19.09;50.28
45071;BME280;30836;48.906;9.140;2022-10-31T06:04:00;990.04;;;19.07;50.28
45071;BME280;30836;48.906;9.140;2022-10-31T06:05:01;990.02;;;19.06;50.34
45071;BME280;30836;48.906;9.140;2022-10-31T06:06:02;990.04;;;19.06;50.37
45071;BME280;30836;48.906;9.140;2022-10-31T06:07:03;990.00;;;19.06;50.31
45071;BME280;30836;48.906;9.140;2022-10-31T06:08:03;990.02;;;19.06;50.34
45071;BME280;30836;48.906;9.140;2022-10-31T06:09:04;990.00;;;19.05;50.30
45071;BME280;30836;48.906;9.140;2022-10-31T06:10:05;989.98;;;19.06;50.27
45071;BME280;30836;48.906;9.140;2022-10-31T06:10:15;990.04;;;19.06;50.26
45071;BME280;30836;48.906;9.140;2022-10-31T06:11:16;990.04;;;19.09;50.15
45071;BME280;30836;48.906;9.140;2022-10-31T06:12:16;990.02;;;19.12;50.00
45071;BME280;30836;48.906;9.140;2022-10-31T06:13:17;990.02;;;19.14;49.96
45071;BME280;30836;48.906;9.140;2022-10-31T06:14:17;990.00;;;19.15;49.88
45071;BME280;30836;48.906;9.140;2022-10-31T06:15:17;990.02;;;19.16;49.84
45071;BME280;30836;48.906;9.140;2022-10-31T06:16:18;990.00;;;19.17;49.71
45071;BME280;30836;48.906;9.140;2022-10-31T06:17:18;990.00;;;19.16;49.75